Time;durP1;ratioP1;P1;durP2;ratioP2;P2;SDS_P1;SDS_P2;PMS_P1;PMS_P2;Temp;Humidity;BMP_temperature;BMP_pressure;BME280_temperature;BME280_humidity;BME280_pressure;Samples;Min_cycle;Max_cycle;Signal;HPM_P1;HPM_P2
2022/07/16 00:04:26;;;;;;;3.22;2.10;;;;;;;21.77;68.61;100038.75;31290602;28;20525;-73
2022/07/16 00:19:30;;;;;;;3.00;2.50;;;;;;;21.74;69.23;100028.69;31284493;28;20527;-74
2022/07/16 00:34:33;;;;;;;4.07;2.35;;;;;;;21.78;67.87;100026.47;31302225;28;20630;-72
2022/07/16 00:49:35;;;;;;;3.00;2.00;;;;;;;21.81;68.16;100010.91;31295374;28;20064;-73
2022/07/16 01:04:37;;;;;;;3.20;2.08;;;;;;;21.77;68.87;100017.41;31303952;28;20058;-74
2022/07/16 01:19:39;;;;;;;4.53;3.00;;;;;;;21.49;71.46;100002.00;31331628;28;20056;-72
2022/07/16 01:34:41;;;;;;;4.47;2.30;;;;;;;21.35;73.09;100009.22;31331590;28;20057;-73
2022/07/16 01:49:45;;;;;;;3.65;2.80;;;;;;;21.29;76.50;100038.78;31331176;28;20139;-73
2022/07/16 02:04:47;;;;;;;3.88;2.85;;;;;;;21.22;76.76;100039.28;31313024;28;20053;-72
2022/07/16 02:19:49;;;;;;;6.77;3.40;;;;;;;21.34;76.73;100038.81;31311587;28;20053;-73
2022/07/16 02:34:51;;;;;;;4.35;3.13;;;;;;;21.36;78.46;100055.66;31315127;28;20049;-73
2022/07/16 02:49:53;;;;;;;6.30;3.67;;;;;;;21.39;80.18;100038.09;31339029;28;20049;-73
2022/07/16 03:04:55;;;;;;;5.28;3.70;;;;;;;21.43;81.61;100054.44;31318933;28;20049;-74
2022/07/16 03:19:58;;;;;;;5.45;4.05;;;;;;;21.36;82.73;100052.91;31320107;28;20054;-74
2022/07/16 03:35:03;;;;;;;8.02;3.80;;;;;;;21.87;82.53;100053.13;31323233;28;20049;-73
2022/07/16 03:50:06;;;;;;;12.57;7.15;;;;;;;21.77;81.60;100060.88;31316030;28;20429;-74
2022/07/16 04:05:13;;;;;;;11.10;5.22;;;;;;;22.30;79.83;100062.06;31308887;28;20045;-68
2022/07/16 04:20:15;;;;;;;9.13;4.90;;;;;;;23.10;77.12;100087.28;31318517;28;20049;-67
2022/07/16 04:35:18;;;;;;;10.37;4.73;;;;;;;23.67;74.33;100105.31;31287375;28;20080;-68
2022/07/16 04:50:20;;;;;;;8.83;5.80;;;;;;;23.61;73.94;100118.44;31323286;28;20474;-69
2022/07/16 05:05:31;;;;;;;12.15;7.70;;;;;;;23.91;73.65;100129.66;31339401;28;20469;-69
2022/07/16 05:20:33;;;;;;;12.90;8.93;;;;;;;24.13;73.70;100127.56;31302044;28;20048;-69
2022/07/16 05:35:35;;;;;;;11.70;8.43;;;;;;;25.11;71.96;100152.97;31299851;28;20124;-70
2022/07/16 05:50:37;;;;;;;10.13;7.40;;;;;;;25.55;69.78;100153.81;31312071;28;22174;-69
2022/07/16 06:05:39;;;;;;;11.57;5.20;;;;;;;25.79;69.88;100164.97;31321496;28;20318;-69
2022/07/16 06:20:41;;;;;;;7.60;5.60;;;;;;;25.86;68.30;100158.06;31290256;28;20771;-68
2022/07/16 06:35:43;;;;;;;;;;;;;;;26.23;66.34;100162.94;31291349;28;20418;-70
2022/07/16 06:50:45;;;;;;;6.18;5.13;;;;;;;27.07;63.55;100156.97;31290145;28;19921;-69
2022/07/16 07:05:47;;;;;;;7.88;5.82;;;;;;;27.64;61.04;100149.13;31305412;28;20052;-69
2022/07/16 07:20:49;;;;;;;7.40;5.00;;;;;;;28.47;57.38;100138.31;31257999;28;20170;-70
2022/07/16 07:35:51;;;;;;;6.15;4.28;;;;;;;29.24;54.25;100146.13;31281036;28;20056;-69
2022/07/16 07:50:53;;;;;;;5.63;4.82;;;;;;;28.97;54.05;100153.16;31265297;28;20053;-70
2022/07/16 08:05:55;;;;;;;8.88;5.63;;;;;;;29.45;54.72;100148.91;31280136;28;20049;-70
2022/07/16 08:20:57;;;;;;;7.70;6.85;;;;;;;29.50;55.84;100145.22;31292583;28;20057;-69
2022/07/16 08:36:03;;;;;;;13.82;10.93;;;;;;;29.05;55.78;100151.94;31289265;28;20053;-69
2022/07/16 08:51:09;;;;;;;11.60;6.50;;;;;;;30.22;50.41;100136.09;31287097;28;20061;-69
2022/07/16 09:06:11;;;;;;;11.45;7.10;;;;;;;31.06;47.83;100134.22;31294219;28;20055;-71
2022/07/16 09:21:14;;;;;;;7.40;4.97;;;;;;;29.15;49.57;100132.63;31307323;28;20500;-70
2022/07/16 09:36:16;;;;;;;8.40;4.90;;;;;;;29.10;50.84;100130.72;31319989;28;20052;-69
2022/07/16 09:51:22;;;;;;;6.55;4.50;;;;;;;29.76;49.68;100121.88;31304261;28;20170;-69
2022/07/16 10:06:23;;;;;;;5.97;5.20;;;;;;;29.75;49.24;100109.19;31324577;28;20422;-70
2022/07/16 10:21:26;;;;;;;6.43;5.82;;;;;;;28.82;51.99;100095.09;31297073;28;20068;-70
2022/07/16 10:36:47;;;;;;;10.75;9.15;;;;;;;29.48;56.46;100106.63;31293492;28;20048;-69
2022/07/16 10:52:14;;;;;;;14.30;8.10;;;;;;;29.59;52.68;100116.00;31319064;28;20103;-68
2022/07/16 11:07:20;;;;;;;12.45;8.43;;;;;;;30.06;52.31;100110.84;31305878;28;20057;-69
2022/07/16 11:22:26;;;;;;;12.10;8.23;;;;;;;29.27;53.07;100111.50;31311118;28;20486;-69
2022/07/16 11:37:28;;;;;;;12.18;9.63;;;;;;;28.89;52.72;100110.44;31297847;28;20418;-68
2022/07/16 11:52:30;;;;;;;11.40;9.88;;;;;;;28.63;52.23;100100.84;31315035;28;20052;-69
2022/07/16 12:07:33;;;;;;;11.65;8.07;;;;;;;28.47;51.06;100102.00;31289913;28;20469;-70
2022/07/16 12:22:49;;;;;;;11.52;8.15;;;;;;;28.69;50.67;100103.53;31301769;28;20556;-70
2022/07/16 12:37:50;;;;;;;12.13;7.45;;;;;;;28.25;50.79;100088.56;31288052;28;20069;-69
2022/07/16 12:52:52;;;;;;;10.52;8.50;;;;;;;27.92;53.98;100085.19;31275566;28;20496;-69
2022/07/16 13:07:55;;;;;;;9.40;6.10;;;;;;;27.77;54.55;100093.38;31295120;28;20055;-71
2022/07/16 13:22:57;;;;;;;7.75;6.22;;;;;;;27.96;54.34;100096.75;31315148;28;20081;-71
2022/07/16 13:38:00;;;;;;;7.32;4.28;;;;;;;27.72;51.71;100102.59;31312124;28;20041;-73
2022/07/16 13:53:02;;;;;;;5.95;4.63;;;;;;;27.72;51.92;100102.59;31301992;28;20068;-73
2022/07/16 14:08:05;;;;;;;8.07;4.90;;;;;;;27.64;52.62;100094.09;31292534;28;20050;-74
2022/07/16 14:23:10;;;;;;;6.72;5.53;;;;;;;27.46;53.04;100112.44;31306097;28;20210;-73
2022/07/16 14:38:12;;;;;;;14.23;8.95;;;;;;;27.02;54.26;100102.09;31298881;28;20037;-72
2022/07/16 14:53:14;;;;;;;10.55;6.45;;;;;;;26.96;53.49;100104.19;31301323;28;20490;-73
2022/07/16 15:08:16;;;;;;;6.45;4.70;;;;;;;26.95;52.33;100116.63;31270177;28;20487;-73
2022/07/16 15:23:19;;;;;;;7.70;5.35;;;;;;;26.45;53.10;100141.16;31289069;28;20052;-71
2022/07/16 15:38:21;;;;;;;7.43;4.50;;;;;;;26.26;52.39;100145.19;31303842;28;20067;-75
2022/07/16 15:53:23;;;;;;;7.68;4.95;;;;;;;26.07;50.93;100159.09;31306682;28;20148;-77
2022/07/16 16:08:25;;;;;;;7.18;5.00;;;;;;;25.90;51.63;100162.06;31305732;28;20048;-77
2022/07/16 16:23:29;;;;;;;6.30;5.05;;;;;;;25.81;53.35;100171.50;31281094;28;20068;-75
2022/07/16 16:38:31;;;;;;;8.25;4.97;;;;;;;25.58;55.33;100186.13;31300710;28;20136;-77
2022/07/16 16:53:33;;;;;;;6.00;4.82;;;;;;;25.40;55.97;100196.66;31347882;28;20053;-79
2022/07/16 17:08:35;;;;;;;5.85;4.50;;;;;;;25.25;56.59;100201.09;31320370;28;20176;-79
2022/07/16 17:23:37;;;;;;;6.10;4.70;;;;;;;25.04;56.87;100232.03;31305994;28;20068;-78
2022/07/16 17:38:40;;;;;;;7.00;4.53;;;;;;;24.65;57.94;100251.69;31348218;28;20050;-77
2022/07/16 17:53:43;;;;;;;5.75;5.03;;;;;;;24.40;58.96;100258.34;31323628;28;20505;-80
2022/07/16 18:08:45;;;;;;;11.63;4.57;;;;;;;24.13;60.34;100277.31;31298158;28;20448;-77
2022/07/16 18:23:47;;;;;;;7.73;4.90;;;;;;;23.78;61.84;100294.50;31316159;28;20055;-76
2022/07/16 18:38:49;;;;;;;9.33;4.60;;;;;;;23.53;62.39;100306.59;31307322;28;20344;-81
2022/07/16 18:53:51;;;;;;;11.20;5.37;;;;;;;23.29;63.57;100309.06;31303427;28;20049;-76
2022/07/16 19:08:55;;;;;;;11.98;5.85;;;;;;;23.03;64.49;100292.66;31319748;28;20055;-76
2022/07/16 19:23:57;;;;;;;;;;;;;;;22.75;67.21;100298.81;31300846;28;20055;-75
2022/07/16 19:38:59;;;;;;;7.80;4.95;;;;;;;22.54;66.18;100294.72;31277194;28;19921;-74
2022/07/16 19:54:01;;;;;;;10.80;4.30;;;;;;;22.48;65.52;100293.16;31319137;28;20144;-76
2022/07/16 20:09:04;;;;;;;4.80;3.80;;;;;;;22.28;65.64;100308.66;31302199;28;20072;-75
2022/07/16 20:24:06;;;;;;;;;;;;;;;21.98;66.57;100302.66;31308774;28;20639;-76
2022/07/16 20:39:08;;;;;;;4.90;2.80;;;;;;;21.83;64.83;100299.28;31293226;28;20389;-75
2022/07/16 20:54:09;;;;;;;5.60;3.97;;;;;;;21.80;64.86;100291.97;31293180;28;20058;-74
2022/07/16 21:09:11;;;;;;;7.65;4.82;;;;;;;21.70;65.19;100304.47;31293673;28;20053;-75
2022/07/16 21:24:14;;;;;;;26.20;16.47;;;;;;;21.61;66.27;100312.91;31286300;28;20140;-75
2022/07/16 21:39:16;;;;;;;6.90;4.40;;;;;;;21.46;67.05;100309.53;31319246;28;20052;-75
2022/07/16 21:54:18;;;;;;;4.82;3.58;;;;;;;21.28;67.99;100303.06;31305241;28;20056;-75
2022/07/16 22:09:21;;;;;;;6.70;4.53;;;;;;;20.84;69.37;100310.84;31332724;28;20052;-76
2022/07/16 22:24:23;;;;;;;5.33;4.10;;;;;;;20.56;71.03;100321.53;31315594;28;20056;-75
2022/07/16 22:39:25;;;;;;;6.05;3.55;;;;;;;20.41;71.88;100318.84;31279105;28;20427;-75
2022/07/16 22:54:27;;;;;;;7.35;4.80;;;;;;;20.28;72.16;100324.66;31320391;28;20067;-75
2022/07/16 23:09:30;;;;;;;6.83;3.83;;;;;;;20.15;72.20;100315.16;31310634;28;20416;-76
2022/07/16 23:24:32;;;;;;;6.10;3.50;;;;;;;19.98;72.91;100315.69;31289931;28;20095;-74
2022/07/16 23:39:34;;;;;;;6.97;4.40;;;;;;;19.92;73.08;100325.84;31315502;28;20049;-74
2022/07/16 23:54:36;;;;;;;6.78;4.43;;;;;;;19.84;73.36;100308.19;31307983;28;20060;-75
